Flight Briefing for CPX826

Departure Arrival
Travis Air Force Base (KSUU)
Click to view FAA NOTAMS
Daniel K Inouye International Airport (PHNL)
Click to view FAA NOTAMS
Departure Time Arrival Time
N/A N/A
Aircraft Distance
B757-200SF 2117nm
Departure METAR Arrival METAR
KSUU 192258Z AUTO 21004KT 10SM CLR 15/M01 A3016 RMK AO2 SLP220 T01531009 $ PHNL 192253Z 08009KT 10SM -RA FEW022 FEW040 OVC100 21/18 A2990 RMK AO2 PRESFR SLP126 P0001 T02110183
Suggested Route
BESSA PYE BEBOP R464 BITTA


View recent IFR Routes data
Notes
USTRANSCOM CONTRACT FLIGHT

Charts and Procedures

Charts for KSUU
No chart available
Charts for PHNL
No chart available

Ventusky Weather




{"cat":null,"equip":null,"transponder":null,"pbn":"PBN\/","maxpax":null,"oew":"0.0","mzfw":"0.0","mtow":"0.0","mlw":"0.0","maxfuel":"0.0"} DEVELOPMENTAL TEST USE ONLY